Time;durP1;ratioP1;P1;durP2;ratioP2;P2;SDS_P1;SDS_P2;PMS_P1;PMS_P2;Temp;Humidity;BMP_temperature;BMP_pressure;BME280_temperature;BME280_humidity;BME280_pressure;Samples;Min_cycle;Max_cycle;Signal;HPM_P1;HPM_P2
2022/11/12 00:00:12;;;;;;;103.40;32.38;;;4.00;99.90;;;;;;6276319;22;20096;-87
2022/11/12 00:03:00;;;;;;;79.50;31.55;;;4.00;99.90;;;;;;6278763;22;20051;-86
2022/11/12 00:05:49;;;;;;;110.90;28.50;;;3.90;99.90;;;;;;6278117;22;20020;-87
2022/11/12 00:08:37;;;;;;;87.80;29.10;;;3.90;99.90;;;;;;6276542;22;20046;-87
2022/11/12 00:11:24;;;;;;;84.05;29.92;;;3.90;99.90;;;;;;6277300;22;20027;-87
2022/11/12 00:14:11;;;;;;;211.00;34.83;;;3.80;99.90;;;;;;6275779;22;20098;-87
2022/11/12 00:16:58;;;;;;;73.25;27.85;;;3.80;99.90;;;;;;6278079;22;20055;-87
2022/11/12 00:19:45;;;;;;;142.98;29.67;;;3.80;99.90;;;;;;6276070;22;20033;-86
2022/11/12 00:22:34;;;;;;;292.80;35.08;;;3.70;99.90;;;;;;6277259;22;20030;-87
2022/11/12 00:25:24;;;;;;;143.75;30.42;;;3.70;99.90;;;;;;6277270;22;20020;-87
2022/11/12 00:28:11;;;;;;;143.55;29.08;;;3.70;99.90;;;;;;6277034;22;20403;-87
2022/11/12 00:30:58;;;;;;;171.27;31.25;;;3.70;99.90;;;;;;6255803;22;20117;-87
2022/11/12 00:33:46;;;;;;;133.27;32.20;;;3.70;99.90;;;;;;6255989;22;20496;-87
2022/11/12 00:36:35;;;;;;;89.68;29.27;;;3.70;99.90;;;;;;6277522;22;20024;-87
2022/11/12 00:39:22;;;;;;;92.35;29.65;;;3.70;99.90;;;;;;6254582;22;20087;-86
2022/11/12 00:42:10;;;;;;;65.75;28.20;;;3.70;99.90;;;;;;6257196;22;20129;-87
2022/11/12 00:44:57;;;;;;;179.05;33.63;;;3.70;99.90;;;;;;6254105;22;20094;-86
2022/11/12 00:47:44;;;;;;;147.27;30.67;;;3.60;99.90;;;;;;6256382;22;20035;-90
2022/11/12 00:50:31;;;;;;;99.93;28.98;;;3.60;99.90;;;;;;6275431;22;20083;-87
2022/11/12 00:53:21;;;;;;;111.50;30.20;;;3.60;99.90;;;;;;6278232;22;20150;-87
2022/11/12 00:56:08;;;;;;;114.88;28.90;;;3.60;99.90;;;;;;6256754;22;20146;-87
2022/11/12 00:58:57;;;;;;;87.10;27.70;;;3.70;99.90;;;;;;6256268;22;20437;-86
2022/11/12 01:01:50;;;;;;;71.45;27.25;;;3.70;99.90;;;;;;6274606;22;20023;-87
2022/11/12 01:04:37;;;;;;;99.55;30.20;;;3.70;99.90;;;;;;6255324;22;20081;-87
2022/11/12 01:07:26;;;;;;;101.35;29.58;;;3.70;99.90;;;;;;6279566;22;20027;-87
2022/11/12 01:10:13;;;;;;;116.38;31.25;;;3.70;99.90;;;;;;6237672;22;20332;-86
2022/11/12 01:13:03;;;;;;;112.07;31.00;;;3.70;99.90;;;;;;6280531;22;20079;-87
2022/11/12 01:15:52;;;;;;;151.98;31.58;;;3.80;99.90;;;;;;6276080;22;20020;-86
2022/11/12 01:18:40;;;;;;;168.77;33.65;;;3.80;99.90;;;;;;6259144;22;20016;-89
2022/11/12 01:21:31;;;;;;;136.90;31.80;;;3.90;99.90;;;;;;6278431;22;20084;-86
2022/11/12 01:24:18;;;;;;;122.28;30.02;;;3.90;99.90;;;;;;6278909;22;20043;-86
2022/11/12 01:27:06;;;;;;;162.05;32.03;;;3.90;99.90;;;;;;6277059;22;20077;-87
2022/11/12 01:29:53;;;;;;;178.77;32.95;;;3.90;99.90;;;;;;6278189;22;20027;-87
2022/11/12 01:32:40;;;;;;;186.73;36.80;;;3.90;99.90;;;;;;6276049;22;20038;-87
2022/11/12 01:35:27;;;;;;;224.93;37.45;;;3.90;99.90;;;;;;6278483;22;20035;-85
2022/11/12 01:38:14;;;;;;;104.13;32.03;;;3.80;99.90;;;;;;6276752;22;20122;-86
2022/11/12 01:41:02;;;;;;;163.70;34.70;;;3.80;99.90;;;;;;6257145;22;20030;-87
2022/11/12 01:44:12;;;;;;;118.03;29.95;;;3.70;99.90;;;;;;6280057;22;20024;-87
2022/11/12 01:47:21;;;;;;;123.45;30.80;;;3.70;99.90;;;;;;6276605;22;20411;-87
2022/11/12 01:50:24;;;;;;;72.85;26.25;;;3.60;99.90;;;;;;6256272;22;20299;-87
2022/11/12 01:53:12;;;;;;;124.47;29.23;;;3.60;99.90;;;;;;6277543;22;20660;-86
2022/11/12 01:56:04;;;;;;;89.28;28.00;;;3.50;99.90;;;;;;6277587;22;20027;-87
2022/11/12 01:59:01;;;;;;;80.68;27.13;;;3.50;99.90;;;;;;6276486;22;20023;-87
2022/11/12 02:01:51;;;;;;;124.45;28.08;;;3.50;99.90;;;;;;6253644;22;20047;-84
2022/11/12 02:04:41;;;;;;;150.80;31.75;;;3.40;99.90;;;;;;6284895;22;20462;-87
2022/11/12 02:07:29;;;;;;;295.13;37.78;;;3.50;99.90;;;;;;6276355;22;20034;-85
2022/11/12 02:10:17;;;;;;;409.30;44.83;;;3.50;99.90;;;;;;6276611;22;20106;-86
2022/11/12 02:16:21;;;;;;;122.00;32.33;;;3.40;99.90;;;;;;6274242;22;20150;-86
2022/11/12 02:19:11;;;;;;;220.10;38.55;;;3.50;99.90;;;;;;6253137;22;20272;-86
2022/11/12 02:21:58;;;;;;;117.70;30.98;;;3.50;99.90;;;;;;6274284;22;20031;-87
2022/11/12 02:24:48;;;;;;;109.18;30.85;;;3.40;99.90;;;;;;6278390;22;20038;-82
2022/11/12 02:27:35;;;;;;;95.85;28.77;;;3.40;99.90;;;;;;6254829;22;20028;-82
2022/11/12 02:30:34;;;;;;;86.75;28.23;;;3.40;99.90;;;;;;6275005;22;20159;-82
2022/11/12 02:33:24;;;;;;;94.47;29.20;;;3.40;99.90;;;;;;6254926;22;20024;-80
2022/11/12 02:36:14;;;;;;;96.57;30.55;;;3.40;99.90;;;;;;6273836;22;20062;-82
2022/11/12 02:39:01;;;;;;;137.73;34.15;;;3.40;99.90;;;;;;6252852;22;20028;-82
2022/11/12 02:41:48;;;;;;;91.18;30.85;;;3.40;99.90;;;;;;6253500;22;20023;-81
2022/11/12 02:44:35;;;;;;;107.38;29.00;;;3.50;99.90;;;;;;6278133;22;20055;-81
2022/11/12 02:47:22;;;;;;;92.43;29.38;;;3.40;99.90;;;;;;6279221;22;20094;-81
2022/11/12 02:50:10;;;;;;;116.20;30.58;;;3.40;99.90;;;;;;6278335;22;20028;-81
2022/11/12 02:52:58;;;;;;;121.97;30.15;;;3.30;99.90;;;;;;6254811;22;20047;-81
2022/11/12 02:55:45;;;;;;;141.63;33.92;;;3.40;99.90;;;;;;6278407;22;20183;-82
2022/11/12 02:58:32;;;;;;;103.63;30.52;;;3.30;99.90;;;;;;6275864;22;20164;-82
2022/11/12 03:01:19;;;;;;;104.40;29.42;;;3.30;99.90;;;;;;6275233;22;20336;-82
2022/11/12 03:04:07;;;;;;;133.20;30.98;;;3.30;99.90;;;;;;6256015;22;20028;-80
2022/11/12 03:06:54;;;;;;;130.10;31.05;;;3.30;99.90;;;;;;6257674;22;20311;-82
2022/11/12 03:09:41;;;;;;;111.85;31.20;;;3.30;99.90;;;;;;6257668;22;20023;-83
2022/11/12 03:12:30;;;;;;;136.02;31.85;;;3.20;99.90;;;;;;6254557;22;20157;-82
2022/11/12 03:15:18;;;;;;;144.52;31.92;;;3.20;99.90;;;;;;6278975;22;20472;-81
2022/11/12 03:18:05;;;;;;;139.07;32.92;;;3.20;99.90;;;;;;6256201;22;20327;-81
2022/11/12 03:20:52;;;;;;;381.83;44.55;;;3.20;99.90;;;;;;6276625;22;20027;-82
2022/11/12 03:23:39;;;;;;;505.88;47.00;;;3.20;99.90;;;;;;6256367;22;20046;-83
2022/11/12 03:26:26;;;;;;;377.90;42.08;;;3.10;99.90;;;;;;6275927;22;20117;-84
2022/11/12 03:29:20;;;;;;;266.30;37.30;;;3.00;99.90;;;;;;6282925;22;20093;-83
2022/11/12 03:32:07;;;;;;;272.25;35.63;;;2.90;99.90;;;;;;6277378;22;20035;-81
2022/11/12 03:34:56;;;;;;;276.77;38.08;;;2.90;99.90;;;;;;6256372;22;20027;-81
2022/11/12 03:37:43;;;;;;;203.25;32.38;;;2.80;99.90;;;;;;6276987;22;20023;-82
2022/11/12 03:40:31;;;;;;;450.58;47.15;;;2.90;99.90;;;;;;6276671;22;20043;-83
2022/11/12 03:43:18;;;;;;;535.08;50.97;;;2.80;99.90;;;;;;6278514;22;20393;-82
2022/11/12 03:46:08;;;;;;;384.02;42.80;;;2.80;99.90;;;;;;6275764;22;20054;-82
2022/11/12 03:48:55;;;;;;;707.28;63.38;;;2.70;99.90;;;;;;6277515;22;20418;-83
2022/11/12 03:51:42;;;;;;;402.23;40.13;;;2.60;99.90;;;;;;6257284;22;20027;-83
2022/11/12 03:54:29;;;;;;;98.57;27.38;;;2.60;99.90;;;;;;6275004;22;20189;-83
2022/11/12 03:57:16;;;;;;;164.75;29.83;;;2.60;99.90;;;;;;6278938;22;20106;-83
2022/11/12 04:00:05;;;;;;;85.78;28.08;;;2.50;99.90;;;;;;6273494;22;20510;-82
2022/11/12 04:02:55;;;;;;;100.10;27.58;;;2.40;99.90;;;;;;6273926;22;20047;-84
2022/11/12 04:09:14;;;;;;;84.25;26.63;;;2.30;99.90;;;;;;6275966;22;20043;-83
2022/11/12 04:13:26;;;;;;;107.15;26.65;;;2.40;99.90;;;;;;6279255;22;20099;-82
2022/11/12 04:15:09;;;;;;;96.72;28.40;;;2.40;99.90;;;;;;6276769;22;20099;-81
2022/11/12 04:26:21;;;;;;;249.70;36.22;;;2.50;99.90;;;;;;6275444;22;20070;-82
2022/11/12 04:27:22;;;;;;;169.57;33.15;;;2.60;99.90;;;;;;6279220;22;20028;-85
2022/11/12 04:30:14;;;;;;;253.90;34.53;;;2.60;99.90;;;;;;6275206;22;20109;-82
2022/11/12 04:33:04;;;;;;;;;;;2.50;99.90;;;;;;6276811;22;20034;-82
2022/11/12 04:35:51;;;;;;;457.00;40.42;;;2.50;99.90;;;;;;6255568;22;19929;-82
2022/11/12 04:38:38;;;;;;;410.58;40.00;;;2.50;99.90;;;;;;6274688;22;20095;-81
2022/11/12 04:47:39;;;;;;;232.38;37.20;;;2.50;99.90;;;;;;6277868;22;20454;-82
2022/11/12 04:50:30;;;;;;;186.40;36.15;;;2.50;99.90;;;;;;6274732;22;20032;-82
2022/11/12 04:53:17;;;;;;;149.63;36.55;;;2.50;99.90;;;;;;6277241;22;20106;-83
2022/11/12 04:56:06;;;;;;;138.45;32.50;;;2.40;99.90;;;;;;6277995;22;20097;-83
2022/11/12 04:58:56;;;;;;;112.03;31.13;;;2.40;99.90;;;;;;6258512;22;20077;-84
2022/11/12 05:01:43;;;;;;;114.25;31.25;;;2.40;99.90;;;;;;6281947;22;20433;-83
2022/11/12 05:04:30;;;;;;;91.20;28.50;;;2.40;99.90;;;;;;6276401;22;20019;-83
2022/11/12 05:07:17;;;;;;;72.82;26.88;;;2.40;99.90;;;;;;6276299;22;20020;-82
2022/11/12 05:10:05;;;;;;;81.68;27.45;;;2.40;99.90;;;;;;6279516;22;20099;-82
2022/11/12 05:12:52;;;;;;;90.70;26.38;;;2.40;99.90;;;;;;6259396;22;20027;-82
2022/11/12 05:15:42;;;;;;;73.70;24.40;;;2.40;99.90;;;;;;6276435;22;20055;-82
2022/11/12 05:18:29;;;;;;;81.43;26.52;;;2.40;99.90;;;;;;6285342;22;20024;-83
2022/11/12 05:24:40;;;;;;;79.25;27.15;;;2.40;99.90;;;;;;6280517;22;20334;-81
2022/11/12 05:27:29;;;;;;;79.88;25.52;;;2.40;99.90;;;;;;6283502;22;20445;-83
2022/11/12 05:30:16;;;;;;;73.38;26.42;;;2.40;99.90;;;;;;6283557;22;20035;-83
2022/11/12 05:33:05;;;;;;;85.75;28.50;;;2.40;99.90;;;;;;6269280;22;20042;-82
2022/11/12 05:35:55;;;;;;;82.95;27.77;;;2.40;99.90;;;;;;6278939;22;20331;-82
2022/11/12 05:38:44;;;;;;;75.80;26.90;;;2.50;99.90;;;;;;6258847;22;20023;-82
2022/11/12 05:41:31;;;;;;;82.68;26.25;;;2.60;99.90;;;;;;6280353;22;20494;-82
2022/11/12 05:44:38;;;;;;;62.25;24.35;;;2.60;99.90;;;;;;6278571;22;20024;-82
2022/11/12 05:47:26;;;;;;;65.65;25.00;;;2.50;99.90;;;;;;6275295;22;20116;-83
2022/11/12 05:50:13;;;;;;;65.88;24.92;;;2.50;99.90;;;;;;6254145;22;20098;-81
2022/11/12 05:53:00;;;;;;;65.22;24.75;;;2.50;99.90;;;;;;6254821;22;20109;-82
2022/11/12 05:55:50;;;;;;;53.88;20.92;;;2.40;99.90;;;;;;6275449;22;20087;-82
2022/11/12 05:58:37;;;;;;;54.90;21.88;;;2.30;99.90;;;;;;6276430;22;20031;-81
2022/11/12 06:01:25;;;;;;;54.53;19.98;;;2.30;99.90;;;;;;6277146;22;20030;-83
2022/11/12 06:04:13;;;;;;;56.33;21.48;;;2.20;99.90;;;;;;6275040;22;20106;-83
2022/11/12 06:07:02;;;;;;;62.15;23.63;;;2.20;99.90;;;;;;6277135;22;20454;-82
2022/11/12 06:09:50;;;;;;;68.53;23.70;;;2.30;99.90;;;;;;6273049;22;20051;-82
2022/11/12 06:12:37;;;;;;;54.08;22.23;;;2.20;99.90;;;;;;6277237;22;20059;-82
2022/11/12 06:15:26;;;;;;;61.45;23.15;;;2.10;99.90;;;;;;6273463;22;20024;-82
2022/11/12 06:18:13;;;;;;;55.58;21.63;;;1.90;99.90;;;;;;6275837;22;20112;-82
2022/11/12 06:24:08;;;;;;;54.05;20.40;;;1.80;99.90;;;;;;6278775;22;20023;-82
2022/11/12 06:26:55;;;;;;;57.17;21.90;;;1.70;99.90;;;;;;6256501;22;20445;-82
2022/11/12 06:29:42;;;;;;;62.05;20.05;;;1.60;99.90;;;;;;6277288;22;20077;-82
2022/11/12 06:32:32;;;;;;;55.45;20.65;;;1.70;99.90;;;;;;6258039;22;20043;-81
2022/11/12 06:35:19;;;;;;;49.72;19.13;;;1.70;99.90;;;;;;6276315;22;20050;-81
2022/11/12 06:38:06;;;;;;;50.72;19.58;;;1.70;99.90;;;;;;6277128;22;20089;-81
2022/11/12 06:40:53;;;;;;;50.95;20.55;;;1.60;99.90;;;;;;6276415;22;20074;-82
2022/11/12 06:43:41;;;;;;;41.88;18.42;;;1.60;99.90;;;;;;6277818;22;20020;-82
2022/11/12 06:46:28;;;;;;;44.42;17.65;;;1.50;99.90;;;;;;6275369;22;20097;-81
2022/11/12 06:49:15;;;;;;;45.55;17.63;;;1.50;99.90;;;;;;6276608;22;20051;-82
2022/11/12 06:52:05;;;;;;;49.88;18.55;;;1.50;99.90;;;;;;6275277;22;20028;-84
2022/11/12 06:54:54;;;;;;;40.95;18.50;;;1.50;99.90;;;;;;6276866;22;20079;-82
2022/11/12 06:57:43;;;;;;;44.63;18.55;;;1.60;99.90;;;;;;6256356;22;20070;-80
2022/11/12 07:00:30;;;;;;;44.10;18.40;;;1.70;99.90;;;;;;6257560;22;20049;-82
2022/11/12 07:03:17;;;;;;;45.75;20.13;;;1.80;99.90;;;;;;6275233;22;20458;-82
2022/11/12 07:06:09;;;;;;;48.40;22.08;;;2.00;99.90;;;;;;6278658;22;20051;-82
2022/11/12 07:08:56;;;;;;;58.45;23.48;;;2.30;99.90;;;;;;6280302;22;20051;-83
2022/11/12 07:11:44;;;;;;;59.45;24.80;;;2.60;99.90;;;;;;6279116;22;20115;-82
2022/11/12 07:14:33;;;;;;;61.90;29.98;;;2.90;99.90;;;;;;6277964;22;20387;-82
2022/11/12 07:17:20;;;;;;;62.55;26.58;;;3.00;99.90;;;;;;6269133;22;20069;-81
2022/11/12 07:20:09;;;;;;;48.85;23.55;;;3.00;99.90;;;;;;6267636;22;20035;-83
2022/11/12 07:23:00;;;;;;;75.30;30.17;;;3.10;99.90;;;;;;6263586;22;20067;-81
2022/11/12 07:26:07;;;;;;;66.60;28.90;;;3.30;99.90;;;;;;6284033;22;20020;-82
2022/11/12 07:28:56;;;;;;;75.35;31.75;;;3.40;99.90;;;;;;6258240;22;20103;-83
2022/11/12 07:31:44;;;;;;;84.47;32.85;;;3.70;99.90;;;;;;6279985;22;20038;-82
2022/11/12 07:34:33;;;;;;;66.20;30.67;;;4.00;99.90;;;;;;6277085;22;20026;-82
2022/11/12 07:37:20;;;;;;;56.20;25.75;;;4.10;99.90;;;;;;6277849;22;20024;-82
2022/11/12 07:40:08;;;;;;;47.17;25.58;;;4.10;99.90;;;;;;6276570;22;20031;-83
2022/11/12 07:42:58;;;;;;;55.22;26.98;;;4.10;99.90;;;;;;6254218;22;20026;-82
2022/11/12 07:45:45;;;;;;;47.22;24.83;;;4.10;99.90;;;;;;6275621;22;20102;-82
2022/11/12 07:48:35;;;;;;;52.45;24.83;;;4.10;99.90;;;;;;6277089;22;20081;-82
2022/11/12 07:51:27;;;;;;;44.63;23.67;;;4.00;99.90;;;;;;6253140;22;20106;-83
2022/11/12 07:54:14;;;;;;;44.17;22.50;;;4.10;99.90;;;;;;6274782;22;20089;-82
2022/11/12 07:57:01;;;;;;;41.17;21.85;;;4.20;99.90;;;;;;6276441;22;20028;-82
2022/11/12 07:59:49;;;;;;;43.10;21.58;;;4.30;99.90;;;;;;6255275;22;20019;-82
2022/11/12 08:02:36;;;;;;;40.90;20.83;;;4.50;99.90;;;;;;6255261;22;20016;-81
2022/11/12 08:05:23;;;;;;;37.90;21.45;;;4.70;99.90;;;;;;6277357;22;20111;-83
2022/11/12 08:08:13;;;;;;;41.15;20.20;;;4.80;99.90;;;;;;6277222;22;20023;-83
2022/11/12 08:11:00;;;;;;;44.00;23.50;;;4.90;99.90;;;;;;6278741;22;20024;-83
2022/11/12 08:13:47;;;;;;;42.33;23.45;;;5.20;99.90;;;;;;6281524;22;20128;-83
2022/11/12 08:16:35;;;;;;;42.65;22.90;;;5.20;99.90;;;;;;6279723;22;20028;-85
2022/11/12 08:19:22;;;;;;;38.53;22.48;;;5.20;99.90;;;;;;6285036;22;20088;-82
2022/11/12 08:22:11;;;;;;;37.72;21.15;;;5.30;99.90;;;;;;6279535;22;20023;-83
2022/11/12 08:24:58;;;;;;;38.83;21.77;;;5.50;99.90;;;;;;6278698;22;20015;-83
2022/11/12 08:27:50;;;;;;;36.72;21.38;;;5.50;99.90;;;;;;6256947;22;20117;-80
2022/11/12 08:30:46;;;;;;;37.17;21.73;;;5.70;99.90;;;;;;6276023;22;20067;-81
2022/11/12 08:33:34;;;;;;;46.47;21.15;;;6.10;99.90;;;;;;6254710;22;20028;-81
2022/11/12 08:36:21;;;;;;;34.42;18.55;;;6.50;99.90;;;;;;6273814;22;20098;-81
2022/11/12 08:39:08;;;;;;;31.42;18.58;;;6.60;99.90;;;;;;6277838;22;20088;-81
2022/11/12 08:41:57;;;;;;;27.02;16.30;;;7.00;99.90;;;;;;6277329;22;20034;-83
2022/11/12 08:44:45;;;;;;;20.88;14.57;;;7.50;99.90;;;;;;6277188;22;20019;-81
2022/11/12 08:47:35;;;;;;;21.27;12.85;;;7.90;99.90;;;;;;6276351;22;20021;-82
2022/11/12 08:50:22;;;;;;;16.23;10.75;;;7.90;99.90;;;;;;6277520;22;20089;-83
2022/11/12 08:53:12;;;;;;;10.98;8.65;;;8.00;99.90;;;;;;6275649;22;20036;-82
2022/11/12 08:55:59;;;;;;;9.18;7.15;;;8.00;99.90;;;;;;6277788;22;20051;-82
2022/11/12 08:58:46;;;;;;;7.07;4.70;;;8.10;99.90;;;;;;6278624;22;20122;-80
2022/11/12 09:01:34;;;;;;;6.53;4.65;;;8.20;99.90;;;;;;6275938;22;20028;-83
2022/11/12 09:04:21;;;;;;;3.30;3.00;;;8.70;99.90;;;;;;6254194;22;20024;-82
2022/11/12 09:07:08;;;;;;;3.05;2.75;;;9.30;99.90;;;;;;6276522;22;20102;-83
2022/11/12 09:09:55;;;;;;;3.55;2.70;;;9.50;99.90;;;;;;6253591;22;20037;-83
2022/11/12 09:12:43;;;;;;;5.45;2.80;;;9.60;99.90;;;;;;6275191;22;20085;-82
2022/11/12 09:15:30;;;;;;;3.78;2.50;;;9.80;99.90;;;;;;6278192;22;20027;-82
2022/11/12 09:18:25;;;;;;;2.50;2.30;;;9.80;99.90;;;;;;6282102;22;20051;-81
2022/11/12 09:21:13;;;;;;;2.38;2.17;;;10.20;99.90;;;;;;6279578;22;20113;-82
2022/11/12 09:24:03;;;;;;;3.05;2.20;;;10.60;99.90;;;;;;6275410;22;20094;-84
2022/11/12 09:26:54;;;;;;;11.73;2.25;;;10.80;99.90;;;;;;6276444;22;20090;-82
2022/11/12 09:29:41;;;;;;;2.90;1.95;;;10.90;99.90;;;;;;6277575;22;20119;-83
2022/11/12 09:32:28;;;;;;;4.82;2.67;;;11.20;99.90;;;;;;6275690;22;20446;-82
2022/11/12 09:35:15;;;;;;;20.67;3.20;;;11.40;39.20;;;;;;6275388;22;20074;-83
2022/11/12 09:38:03;;;;;;;12.45;2.63;;;11.60;1.00;;;;;;6274811;22;20172;-83
2022/11/12 09:40:50;;;;;;;10.25;2.60;;;12.10;1.00;;;;;;6277121;22;20398;-83
2022/11/12 09:44:07;;;;;;;3.53;2.22;;;12.20;99.90;;;;;;6277713;22;20027;-82
2022/11/12 09:47:06;;;;;;;2.88;2.20;;;12.50;99.90;;;;;;6257224;22;20024;-81
2022/11/12 09:50:18;;;;;;;3.47;2.30;;;12.60;99.90;;;;;;6254488;22;20031;-81
2022/11/12 09:53:34;;;;;;;2.22;2.00;;;12.80;99.90;;;;;;6275894;22;20019;-83
2022/11/12 09:56:28;;;;;;;2.50;2.08;;;13.30;99.90;;;;;;6279566;22;20030;-82
2022/11/12 09:59:16;;;;;;;4.75;2.10;;;13.10;99.90;;;;;;6277351;22;20098;-83
2022/11/12 10:02:25;;;;;;;2.97;2.30;;;13.00;99.90;;;;;;6253748;22;20417;-82
2022/11/12 10:05:24;;;;;;;2.17;1.90;;;13.40;99.90;;;;;;6278967;22;20149;-82
2022/11/12 10:08:32;;;;;;;2.53;2.00;;;13.40;99.90;;;;;;6257652;22;20034;-81
2022/11/12 10:18:42;;;;;;;10.65;2.03;;;14.40;99.90;;;;;;6279564;22;20032;-83
2022/11/12 10:21:39;;;;;;;2.72;2.13;;;14.20;99.90;;;;;;6278024;22;20427;-82
2022/11/12 10:24:34;;;;;;;6.78;2.47;;;14.30;99.90;;;;;;6280399;22;20363;-83
2022/11/12 10:27:26;;;;;;;2.83;1.98;;;14.00;99.90;;;;;;6281055;22;20125;-83
2022/11/12 10:30:22;;;;;;;2.97;1.95;;;14.30;99.90;;;;;;6281799;22;20101;-82
2022/11/12 10:33:16;;;;;;;3.35;2.08;;;14.60;99.90;;;;;;6258208;22;20023;-82
2022/11/12 10:36:19;;;;;;;1.90;1.75;;;14.90;99.90;;;;;;6257175;22;20048;-82
2022/11/12 10:39:06;;;;;;;2.33;1.90;;;15.10;99.90;;;;;;6280478;22;20019;-86
2022/11/12 10:42:12;;;;;;;2.55;1.92;;;15.20;99.90;;;;;;6256402;22;20031;-88
2022/11/12 10:45:19;;;;;;;1.73;1.63;;;15.60;99.90;;;;;;6255336;22;20103;-87
2022/11/12 10:48:27;;;;;;;2.60;2.00;;;16.00;99.90;;;;;;6256714;22;20508;-87
2022/11/12 10:51:35;;;;;;;2.28;1.80;;;16.40;99.90;;;;;;6276704;22;20023;-87
2022/11/12 10:54:37;;;;;;;3.60;1.80;;;16.40;99.90;;;;;;6279498;22;20358;-88
2022/11/12 10:57:28;;;;;;;2.25;1.63;;;17.00;99.90;;;;;;6279516;22;20028;-87
2022/11/12 11:00:19;;;;;;;2.67;1.70;;;16.90;99.90;;;;;;6278312;22;20023;-88
2022/11/12 11:03:19;;;;;;;1.92;1.75;;;16.80;99.90;;;;;;6279106;22;20039;-86
2022/11/12 11:06:12;;;;;;;3.53;2.53;;;16.40;99.90;;;;;;6255961;22;20267;-87
2022/11/12 11:09:25;;;;;;;4.07;1.92;;;16.30;99.90;;;;;;6255997;22;20031;-87
2022/11/12 11:12:28;;;;;;;3.83;2.38;;;16.60;99.90;;;;;;6256963;22;20055;-85
2022/11/12 11:15:18;;;;;;;;;;;16.40;99.90;;;;;;6279424;22;20361;-87
2022/11/12 11:18:11;;;;;;;3.35;1.98;;;17.00;99.90;;;;;;6256419;22;19993;-88
2022/11/12 11:21:30;;;;;;;3.38;2.20;;;18.20;99.90;;;;;;6279716;22;20474;-88
2022/11/12 11:24:29;;;;;;;2.63;2.22;;;18.00;94.50;;;;;;6278852;22;20024;-87
2022/11/12 11:27:26;;;;;;;2.65;1.73;;;17.90;93.30;;;;;;6257868;22;20323;-88
2022/11/12 11:30:17;;;;;;;3.78;2.10;;;17.70;91.80;;;;;;6256130;22;20101;-88
2022/11/12 11:33:38;;;;;;;5.27;1.97;;;17.70;90.40;;;;;;6277978;22;20027;-89
2022/11/12 11:36:25;;;;;;;3.10;2.30;;;17.00;89.50;;;;;;6277477;22;20238;-85
2022/11/12 11:39:34;;;;;;;3.08;2.10;;;16.50;92.00;;;;;;6258039;22;20099;-86
2022/11/12 11:42:49;;;;;;;2.38;1.98;;;16.90;94.90;;;;;;6255331;22;20024;-87
2022/11/12 11:46:11;;;;;;;6.93;2.45;;;17.80;93.00;;;;;;6278646;22;20027;-89
2022/11/12 11:49:17;;;;;;;13.27;2.33;;;18.90;81.40;;;;;;6256192;22;20414;-89
2022/11/12 11:52:36;;;;;;;2.90;2.40;;;18.50;65.50;;;;;;6278472;22;20023;-88
2022/11/12 11:55:32;;;;;;;3.20;2.38;;;18.80;64.50;;;;;;6279402;22;20128;-89
2022/11/12 11:58:57;;;;;;;3.20;2.08;;;19.40;76.10;;;;;;6277738;22;20089;-88
2022/11/12 12:01:50;;;;;;;1.98;1.70;;;19.70;75.10;;;;;;6238785;22;20059;-89
2022/11/12 12:05:09;;;;;;;1.70;1.40;;;20.70;69.00;;;;;;6277126;22;20024;-85
2022/11/12 12:08:04;;;;;;;1.98;1.50;;;21.10;58.90;;;;;;6250093;22;20419;-89
2022/11/12 12:11:10;;;;;;;1.50;1.40;;;20.60;45.70;;;;;;6279128;22;20031;-89
2022/11/12 12:14:38;;;;;;;2.42;1.65;;;20.20;43.40;;;;;;6279487;22;20113;-89
2022/11/12 12:17:25;;;;;;;1.85;1.67;;;19.40;38.80;;;;;;6255431;22;20031;-90
2022/11/12 12:20:34;;;;;;;1.73;1.63;;;19.00;38.10;;;;;;6276481;22;20028;-89
2022/11/12 12:23:32;;;;;;;1.90;1.70;;;17.80;45.10;;;;;;6276255;22;20368;-89
2022/11/12 12:26:26;;;;;;;1.77;1.67;;;17.60;53.70;;;;;;6257204;22;20023;-88
2022/11/12 12:29:35;;;;;;;3.00;1.85;;;17.30;64.60;;;;;;6256874;22;20087;-87
2022/11/12 12:32:28;;;;;;;3.15;1.80;;;16.70;71.00;;;;;;6254188;22;20038;-86
2022/11/12 12:35:36;;;;;;;2.60;1.90;;;16.50;84.60;;;;;;6277260;22;20403;-86
2022/11/12 12:38:34;;;;;;;3.47;2.25;;;16.00;87.60;;;;;;6279193;22;20024;-86
2022/11/12 12:41:28;;;;;;;3.08;2.35;;;15.80;95.30;;;;;;6275991;22;20027;-86
2022/11/12 12:44:15;;;;;;;2.00;1.50;;;15.80;98.90;;;;;;6256807;22;20035;-86
2022/11/12 12:47:03;;;;;;;4.53;2.10;;;15.80;99.90;;;;;;6278820;22;20031;-85
2022/11/12 12:49:54;;;;;;;2.90;1.70;;;15.70;99.90;;;;;;6274556;22;20086;-86
2022/11/12 12:53:04;;;;;;;1.50;1.40;;;15.80;99.90;;;;;;6255331;22;20027;-85
2022/11/12 12:55:53;;;;;;;2.67;1.67;;;15.50;99.90;;;;;;6253772;22;20098;-85
2022/11/12 12:58:47;;;;;;;1.40;1.30;;;15.70;99.90;;;;;;6275881;22;20158;-85
2022/11/12 13:01:35;;;;;;;1.65;1.50;;;15.50;99.90;;;;;;6278517;22;20027;-84
2022/11/12 13:05:12;;;;;;;1.60;1.50;;;15.60;99.90;;;;;;6290928;22;20019;-84
2022/11/12 13:08:12;;;;;;;1.70;1.60;;;15.90;99.90;;;;;;6290870;22;20049;-85
2022/11/12 13:10:59;;;;;;;3.78;2.20;;;15.80;99.90;;;;;;6295629;22;20031;-84
2022/11/12 13:13:46;;;;;;;2.50;1.98;;;15.80;99.90;;;;;;6296807;22;20023;-84
2022/11/12 13:16:49;;;;;;;3.25;2.00;;;15.90;99.90;;;;;;6280731;22;20112;-85
2022/11/12 13:19:38;;;;;;;2.13;1.98;;;15.40;99.90;;;;;;6257932;22;20026;-86
2022/11/12 13:22:25;;;;;;;3.58;2.22;;;15.30;99.90;;;;;;6277842;22;20042;-85
2022/11/12 13:25:12;;;;;;;2.35;1.80;;;15.50;99.90;;;;;;6280834;22;20090;-83
2022/11/12 13:28:07;;;;;;;2.88;2.40;;;15.30;99.90;;;;;;6282382;22;20093;-85
2022/11/12 13:30:57;;;;;;;3.75;2.60;;;15.40;99.90;;;;;;6283122;22;20020;-83
2022/11/12 13:33:45;;;;;;;3.72;2.60;;;15.00;99.90;;;;;;6257661;22;20024;-85
2022/11/12 13:36:32;;;;;;;3.85;2.92;;;14.80;99.90;;;;;;6256964;22;20030;-84
2022/11/12 13:39:22;;;;;;;3.75;3.00;;;14.60;99.90;;;;;;6277120;22;20046;-85
2022/11/12 13:45:26;;;;;;;5.75;4.60;;;14.00;99.90;;;;;;6277044;22;20384;-82
2022/11/12 13:48:22;;;;;;;8.40;5.07;;;13.40;99.90;;;;;;6256000;22;20116;-84
2022/11/12 13:51:12;;;;;;;5.90;5.28;;;13.10;99.90;;;;;;6253545;22;20103;-85
2022/11/12 13:54:00;;;;;;;8.93;5.38;;;12.60;99.90;;;;;;6274864;22;20027;-85
2022/11/12 13:56:50;;;;;;;6.05;5.43;;;12.40;99.90;;;;;;6274249;22;20020;-84
2022/11/12 13:59:37;;;;;;;7.38;5.75;;;12.50;99.90;;;;;;6277527;22;20314;-87
2022/11/12 14:02:26;;;;;;;7.60;5.80;;;12.30;99.90;;;;;;6278177;22;20098;-86
2022/11/12 14:05:22;;;;;;;13.00;5.53;;;12.00;99.90;;;;;;6281419;22;20019;-87
2022/11/12 14:08:40;;;;;;;8.30;6.20;;;11.80;99.90;;;;;;6270085;22;20027;-85
2022/11/12 14:11:55;;;;;;;7.70;5.97;;;11.70;99.90;;;;;;6266363;22;20047;-87
2022/11/12 14:14:42;;;;;;;9.15;6.15;;;11.60;99.90;;;;;;6282947;22;20051;-85
2022/11/12 14:17:44;;;;;;;7.90;6.03;;;11.50;99.90;;;;;;6283993;22;20038;-88
2022/11/12 14:20:39;;;;;;;10.25;7.10;;;11.40;99.90;;;;;;6281562;22;20051;-84
2022/11/12 14:23:26;;;;;;;7.45;5.88;;;11.40;99.90;;;;;;6280779;22;20031;-86
2022/11/12 14:26:38;;;;;;;9.20;5.65;;;11.40;99.90;;;;;;6254630;22;20026;-87
2022/11/12 14:29:26;;;;;;;9.68;6.85;;;11.30;99.90;;;;;;6277459;22;20020;-90
2022/11/12 14:32:20;;;;;;;11.68;7.18;;;11.30;99.90;;;;;;6253612;22;20379;-83
2022/11/12 14:35:36;;;;;;;7.45;6.63;;;11.20;99.90;;;;;;6278178;22;20103;-84
2022/11/12 14:38:28;;;;;;;10.98;7.10;;;11.10;99.90;;;;;;6253955;22;20031;-86
2022/11/12 14:41:20;;;;;;;;;;;11.00;99.90;;;;;;6278502;22;20036;-86
2022/11/12 14:44:30;;;;;;;8.02;6.57;;;10.90;99.90;;;;;;6280992;22;20267;-86
2022/11/12 14:47:18;;;;;;;10.18;7.47;;;10.90;99.90;;;;;;6282088;22;20328;-86
2022/11/12 14:50:07;;;;;;;9.60;7.03;;;10.80;99.90;;;;;;6256909;22;20085;-85
2022/11/12 14:53:03;;;;;;;11.02;7.88;;;10.70;1.00;;;;;;6279103;22;20077;-85
2022/11/12 14:55:54;;;;;;;12.98;7.72;;;10.60;1.00;;;;;;6277309;22;20027;-85
2022/11/12 14:58:42;;;;;;;11.27;7.40;;;10.50;1.00;;;;;;6257778;22;20101;-85
2022/11/12 15:01:32;;;;;;;11.30;7.53;;;10.30;1.00;;;;;;6278474;22;20023;-84
2022/11/12 15:04:49;;;;;;;12.35;8.18;;;10.20;1.00;;;;;;6277094;22;20157;-84
2022/11/12 15:07:58;;;;;;;12.45;7.43;;;10.10;1.00;;;;;;6256411;22;20024;-84
2022/11/12 15:10:48;;;;;;;12.13;8.40;;;10.10;1.00;;;;;;6257034;22;20031;-86
2022/11/12 15:13:40;;;;;;;10.02;7.28;;;10.00;1.00;;;;;;6257503;22;20024;-87
2022/11/12 15:16:33;;;;;;;12.63;7.88;;;9.90;1.00;;;;;;6255688;22;20038;-86
2022/11/12 15:19:24;;;;;;;11.95;7.88;;;9.80;8.90;;;;;;6279218;22;20118;-86
2022/11/12 15:22:22;;;;;;;13.82;8.65;;;9.70;48.20;;;;;;6257824;22;20023;-86
2022/11/12 15:25:24;;;;;;;13.20;8.27;;;9.60;99.90;;;;;;6256597;22;20031;-86